createdAt,value
2022-10-05T00:00:53.429Z,6.22
2022-10-05T00:03:22.659Z,5.20
2022-10-05T00:05:50.026Z,6.25
2022-10-05T00:08:25.410Z,6.53
2022-10-05T00:10:52.712Z,6.57
2022-10-05T00:13:26.046Z,5.85
2022-10-05T00:16:07.807Z,5.97
2022-10-05T00:18:34.606Z,6.38
2022-10-05T00:21:02.064Z,8.38
2022-10-05T00:23:32.316Z,8.85
2022-10-05T00:26:11.893Z,8.25
2022-10-05T00:28:40.608Z,8.27
2022-10-05T00:31:17.290Z,7.07
2022-10-05T00:33:44.149Z,6.55
2022-10-05T00:36:11.113Z,6.47
2022-10-05T00:38:38.216Z,5.93
2022-10-05T00:41:39.353Z,6.55
2022-10-05T00:44:12.076Z,6.25
2022-10-05T00:46:57.237Z,5.55
2022-10-05T00:50:01.885Z,6.13
2022-10-05T00:52:36.960Z,6.30
2022-10-05T00:55:26.648Z,6.15
2022-10-05T00:57:59.373Z,5.65
2022-10-05T01:00:27.935Z,6.65
2022-10-05T01:03:00.553Z,6.70
2022-10-05T01:05:48.781Z,5.97
2022-10-05T01:08:18.414Z,5.32
2022-10-05T01:10:52.715Z,5.97
2022-10-05T01:13:28.682Z,5.45
2022-10-05T01:16:05.005Z,6.07
2022-10-05T01:18:50.645Z,6.28
2022-10-05T01:21:23.058Z,6.57
2022-10-05T01:24:14.342Z,6.50
2022-10-05T01:27:05.331Z,6.43
2022-10-05T01:29:49.767Z,5.97
2022-10-05T01:32:31.819Z,6.15
2022-10-05T01:35:07.774Z,6.38
2022-10-05T01:37:42.231Z,5.63
2022-10-05T01:40:16.138Z,8.23
2022-10-05T01:42:45.758Z,8.23
2022-10-05T01:45:47.627Z,9.32
2022-10-05T01:48:17.341Z,8.85
2022-10-05T01:51:02.630Z,10.30
2022-10-05T01:53:42.865Z,9.25
2022-10-05T01:56:41.612Z,9.23
2022-10-05T01:59:19.010Z,8.45
2022-10-05T02:01:54.990Z,8.45
2022-10-05T02:05:00.886Z,9.32
2022-10-05T02:07:36.167Z,8.15
2022-10-05T02:10:14.911Z,8.30
2022-10-05T02:12:43.143Z,9.02
2022-10-05T02:15:17.982Z,8.55
2022-10-05T02:17:49.242Z,8.80
2022-10-05T02:20:23.733Z,8.00
2022-10-05T02:22:54.832Z,9.25
2022-10-05T02:25:38.932Z,8.82
2022-10-05T02:28:18.777Z,9.77
2022-10-05T02:30:53.074Z,9.27
2022-10-05T02:33:38.574Z,9.18
2022-10-05T02:36:34.721Z,8.95
2022-10-05T02:39:10.395Z,9.70
2022-10-05T02:41:48.202Z,9.00
2022-10-05T02:44:23.793Z,7.25
2022-10-05T02:46:57.430Z,8.38
2022-10-05T02:49:24.611Z,6.70
2022-10-05T02:52:03.349Z,6.45
2022-10-05T02:54:40.248Z,7.03
2022-10-05T02:57:19.009Z,7.63
2022-10-05T03:00:04.684Z,6.68
2022-10-05T03:02:44.342Z,7.10
2022-10-05T03:05:17.428Z,6.05
2022-10-05T03:08:22.428Z,6.43
2022-10-05T03:11:04.744Z,7.03
2022-10-05T03:13:49.809Z,6.38
2022-10-05T03:16:38.528Z,5.68
2022-10-05T03:19:22.441Z,6.40
2022-10-05T03:22:01.060Z,6.25
2022-10-05T03:24:36.767Z,7.15
2022-10-05T03:27:22.891Z,7.78
2022-10-05T03:30:08.138Z,6.97
2022-10-05T03:32:54.801Z,7.22
2022-10-05T03:35:43.016Z,7.30
2022-10-05T03:38:31.330Z,7.57
2022-10-05T03:41:35.215Z,6.45
2022-10-05T03:44:12.644Z,6.40
2022-10-05T03:46:48.945Z,7.38
2022-10-05T03:49:36.060Z,6.72
2022-10-05T03:52:12.849Z,7.88
2022-10-05T03:54:48.759Z,6.80
2022-10-05T03:57:26.705Z,7.95
2022-10-05T04:00:12.962Z,6.97
2022-10-05T04:02:57.528Z,7.57
2022-10-05T04:05:30.034Z,7.28
2022-10-05T04:08:01.780Z,6.57
2022-10-05T04:10:35.694Z,7.63
2022-10-05T04:13:15.693Z,7.65
2022-10-05T04:16:10.129Z,7.82
2022-10-05T04:18:47.785Z,7.28
2022-10-05T04:21:51.755Z,7.03
2022-10-05T04:24:32.535Z,7.65
2022-10-05T04:27:03.350Z,5.97
2022-10-05T04:30:12.674Z,6.70
2022-10-05T04:32:43.387Z,6.65
2022-10-05T04:35:15.871Z,6.47
2022-10-05T04:38:01.149Z,7.95
2022-10-05T04:40:33.885Z,8.07
2022-10-05T04:43:24.342Z,6.97
2022-10-05T04:45:51.101Z,7.68
2022-10-05T04:48:20.718Z,7.20
2022-10-05T04:51:00.263Z,6.80
2022-10-05T04:54:06.356Z,7.65
2022-10-05T04:56:39.963Z,6.63
2022-10-05T04:59:50.946Z,6.53
2022-10-05T05:02:25.320Z,6.18
2022-10-05T05:05:10.702Z,6.15
2022-10-05T05:07:49.321Z,7.82
2022-10-05T05:10:25.007Z,6.50
2022-10-05T05:13:00.665Z,6.35
2022-10-05T05:15:50.475Z,6.72
2022-10-05T05:18:26.637Z,6.65
2022-10-05T05:21:02.463Z,7.07
2022-10-05T05:23:39.642Z,7.32
2022-10-05T05:26:40.213Z,8.18
2022-10-05T05:29:30.990Z,6.32
2022-10-05T05:32:01.134Z,6.90
2022-10-05T05:34:55.897Z,7.60
2022-10-05T05:37:28.470Z,6.60
2022-10-05T05:40:03.915Z,7.43
2022-10-05T05:42:43.503Z,7.20
2022-10-05T05:45:20.466Z,8.27
2022-10-05T05:47:54.011Z,7.10
2022-10-05T05:50:38.811Z,7.38
2022-10-05T05:53:17.237Z,6.80
2022-10-05T05:55:50.706Z,7.05
2022-10-05T05:58:17.421Z,6.43
2022-10-05T06:00:54.412Z,7.20
2022-10-05T06:03:21.187Z,7.95
2022-10-05T06:05:52.910Z,6.63
2022-10-05T06:08:43.523Z,6.90
2022-10-05T06:11:18.267Z,6.93
2022-10-05T06:13:45.530Z,7.38
2022-10-05T06:16:24.766Z,6.32
2022-10-05T06:18:58.918Z,6.05
2022-10-05T06:21:34.733Z,6.53
2022-10-05T06:24:24.611Z,6.70
2022-10-05T06:27:03.197Z,6.93
2022-10-05T06:29:48.169Z,7.20
2022-10-05T06:32:28.948Z,6.15
2022-10-05T06:35:07.990Z,7.05
2022-10-05T06:37:56.382Z,7.65
2022-10-05T06:40:57.940Z,7.65
2022-10-05T06:43:39.865Z,6.20
2022-10-05T06:46:19.716Z,7.88
2022-10-05T06:49:18.774Z,7.85
2022-10-05T06:51:51.318Z,7.65
2022-10-05T06:54:30.173Z,7.28
2022-10-05T06:57:15.817Z,10.32
2022-10-05T06:59:52.078Z,8.95
2022-10-05T07:02:29.776Z,10.05
2022-10-05T07:05:42.736Z,10.68
2022-10-05T07:08:37.793Z,10.70
2022-10-05T07:11:20.909Z,10.27
2022-10-05T07:14:03.707Z,10.32
2022-10-05T07:16:52.078Z,9.90
2022-10-05T07:19:40.618Z,10.33
2022-10-05T07:22:31.786Z,10.20
2022-10-05T07:25:22.042Z,15.10
2022-10-05T07:28:06.035Z,15.65
2022-10-05T07:30:44.585Z,15.05
2022-10-05T07:33:22.183Z,12.70
2022-10-05T07:36:23.326Z,12.95
2022-10-05T07:39:07.966Z,12.75
2022-10-05T07:41:46.153Z,12.70
2022-10-05T07:44:38.326Z,11.20
2022-10-05T07:47:13.448Z,9.98
2022-10-05T07:49:43.445Z,11.43
2022-10-05T07:52:19.378Z,12.02
2022-10-05T07:54:53.277Z,9.82
2022-10-05T07:57:30.184Z,8.65
2022-10-05T08:00:13.841Z,8.95
2022-10-05T08:03:11.670Z,9.85
2022-10-05T08:05:42.619Z,8.57
2022-10-05T08:08:14.418Z,8.48
2022-10-05T08:10:56.189Z,9.75
2022-10-05T08:13:43.615Z,9.52
2022-10-05T08:16:15.147Z,9.55
2022-10-05T08:19:00.029Z,9.35
2022-10-05T08:21:41.560Z,9.93
2022-10-05T08:24:20.499Z,9.65
2022-10-05T08:26:59.925Z,9.90
2022-10-05T08:29:37.841Z,9.23
2022-10-05T08:32:15.633Z,9.98
2022-10-05T08:34:51.466Z,8.52
2022-10-05T08:37:29.390Z,12.57
2022-10-05T08:40:14.798Z,10.82
2022-10-05T08:42:41.525Z,9.32
2022-10-05T08:45:54.115Z,10.52
2022-10-05T08:48:58.114Z,12.13
2022-10-05T08:51:27.542Z,11.45
2022-10-05T08:54:09.294Z,10.77
2022-10-05T08:56:53.780Z,11.15
2022-10-05T08:59:57.756Z,13.25
2022-10-05T09:02:52.869Z,10.20
2022-10-05T09:05:38.106Z,11.80
2022-10-05T09:08:23.666Z,10.98
2022-10-05T09:11:03.918Z,10.68
2022-10-05T09:13:31.641Z,10.50
2022-10-05T09:16:32.615Z,9.95
2022-10-05T09:19:02.514Z,9.75
2022-10-05T09:21:41.862Z,10.23
2022-10-05T09:24:14.793Z,8.80
2022-10-05T09:26:42.982Z,8.38
2022-10-05T09:29:57.369Z,8.52
2022-10-05T09:32:44.596Z,9.43
2022-10-05T09:35:21.584Z,8.95
2022-10-05T09:37:48.217Z,8.32
2022-10-05T09:40:24.031Z,7.95
2022-10-05T09:43:20.472Z,7.57
2022-10-05T09:45:48.980Z,8.18
2022-10-05T09:48:45.487Z,6.45
2022-10-05T09:51:36.767Z,7.47
2022-10-05T09:54:21.543Z,6.30
2022-10-05T09:57:15.112Z,7.53
2022-10-05T10:00:21.206Z,6.10
2022-10-05T10:03:04.976Z,7.00
2022-10-05T10:05:34.809Z,7.10
2022-10-05T10:08:23.570Z,6.97
2022-10-05T10:11:02.330Z,7.10
2022-10-05T10:13:41.166Z,6.35
2022-10-05T10:16:27.017Z,6.78
2022-10-05T10:19:01.176Z,7.93
2022-10-05T10:22:00.295Z,6.28
2022-10-05T10:24:52.057Z,7.18
2022-10-05T10:27:41.959Z,6.30
2022-10-05T10:30:47.569Z,6.20
2022-10-05T10:33:16.869Z,6.03
2022-10-05T10:36:07.009Z,6.68
2022-10-05T10:39:07.000Z,6.57
2022-10-05T10:42:14.118Z,6.38
2022-10-05T10:44:59.091Z,6.55
2022-10-05T10:47:44.433Z,6.38
2022-10-05T10:50:28.377Z,6.72
2022-10-05T10:54:02.716Z,7.32
2022-10-05T10:56:47.723Z,6.50
2022-10-05T10:59:46.836Z,7.00
2022-10-05T11:02:42.469Z,5.80
2022-10-05T11:05:38.215Z,6.78
2022-10-05T11:08:22.899Z,6.40
2022-10-05T11:11:22.836Z,5.15
2022-10-05T11:14:16.642Z,5.03
2022-10-05T11:17:17.163Z,3.35
2022-10-05T11:20:05.742Z,3.13
2022-10-05T11:22:42.428Z,3.45
2022-10-05T11:25:33.932Z,3.90
2022-10-05T11:28:40.194Z,4.30
2022-10-05T11:31:12.895Z,3.55
2022-10-05T11:33:43.103Z,3.33
2022-10-05T11:36:37.952Z,3.30
2022-10-05T11:39:23.517Z,4.18
2022-10-05T11:42:08.046Z,4.18
2022-10-05T11:45:00.789Z,5.45
2022-10-05T11:47:39.634Z,4.18
2022-10-05T11:50:32.781Z,4.72
2022-10-05T11:53:23.161Z,3.75
2022-10-05T11:56:00.413Z,4.43
2022-10-05T11:58:33.809Z,4.40
2022-10-05T12:01:34.799Z,4.00
2022-10-05T12:04:27.768Z,4.90
2022-10-05T12:07:08.129Z,4.07
2022-10-05T12:10:02.857Z,3.67
2022-10-05T12:12:37.164Z,3.85
2022-10-05T12:15:10.390Z,3.97
2022-10-05T12:17:48.831Z,3.67
2022-10-05T12:20:40.318Z,3.40
2022-10-05T12:23:25.059Z,2.92
2022-10-05T12:26:02.200Z,3.30
2022-10-05T12:28:49.950Z,3.25
2022-10-05T12:31:43.780Z,2.60
2022-10-05T12:34:16.894Z,4.15
2022-10-05T12:37:16.326Z,3.45
2022-10-05T12:40:12.502Z,3.13
2022-10-05T12:42:52.037Z,3.05
2022-10-05T12:45:36.996Z,2.70
2022-10-05T12:48:19.207Z,3.97
2022-10-05T12:50:51.485Z,2.55
2022-10-05T12:53:33.376Z,2.55
2022-10-05T12:56:30.743Z,2.38
2022-10-05T12:59:42.695Z,2.33
2022-10-05T13:02:25.093Z,3.33
2022-10-05T13:05:11.996Z,2.63
2022-10-05T13:07:48.698Z,2.10
2022-10-05T13:10:24.791Z,1.63
2022-10-05T13:13:12.729Z,2.30
2022-10-05T13:15:56.565Z,1.98
2022-10-05T13:18:29.492Z,1.65
2022-10-05T13:21:12.841Z,2.70
2022-10-05T13:23:53.750Z,2.10
2022-10-05T13:26:34.165Z,2.20
2022-10-05T13:29:22.502Z,1.98
2022-10-05T13:31:55.754Z,1.80
2022-10-05T13:34:38.656Z,2.10
2022-10-05T13:37:31.857Z,1.77
2022-10-05T13:40:02.025Z,2.13
2022-10-05T13:42:41.287Z,2.28
2022-10-05T13:48:27.474Z,1.83
2022-10-05T13:51:05.291Z,2.03
2022-10-05T13:53:42.677Z,2.10
2022-10-05T13:56:33.244Z,1.77
2022-10-05T13:59:33.136Z,1.80
2022-10-05T14:02:07.812Z,1.98
2022-10-05T14:04:51.195Z,2.08
2022-10-05T14:07:31.702Z,1.98
2022-10-05T14:10:02.227Z,1.80
2022-10-05T14:12:29.040Z,1.40
2022-10-05T14:15:12.897Z,2.00
2022-10-05T14:17:42.464Z,1.52
2022-10-05T14:20:27.481Z,1.92
2022-10-05T14:23:01.915Z,2.00
2022-10-05T14:25:31.052Z,1.80
2022-10-05T14:28:00.633Z,1.40
2022-10-05T14:30:30.122Z,2.40
2022-10-05T14:35:56.057Z,1.73
2022-10-05T14:38:23.053Z,1.80
2022-10-05T14:41:13.406Z,1.80
2022-10-05T14:44:07.330Z,3.03
2022-10-05T14:46:36.682Z,3.95
2022-10-05T14:49:21.335Z,2.25
2022-10-05T14:51:49.676Z,1.90
2022-10-05T14:54:46.576Z,2.03
2022-10-05T14:57:40.830Z,1.67
2022-10-05T15:00:18.905Z,2.80
2022-10-05T15:02:45.610Z,2.30
2022-10-05T15:05:53.992Z,1.95
2022-10-05T15:08:53.710Z,2.20
2022-10-05T15:11:34.793Z,2.60
2022-10-05T15:14:06.406Z,2.90
2022-10-05T15:16:38.486Z,1.67
2022-10-05T15:19:24.418Z,2.08
2022-10-05T15:22:10.640Z,1.55
2022-10-05T15:24:56.055Z,1.60
2022-10-05T15:27:35.708Z,1.70
2022-10-05T15:32:51.234Z,2.53
2022-10-05T15:36:00.770Z,2.53
2022-10-05T15:41:18.335Z,1.42
2022-10-05T15:43:55.379Z,2.25
2022-10-05T15:46:47.165Z,1.98
2022-10-05T15:49:16.704Z,1.80
2022-10-05T15:52:07.663Z,1.90
2022-10-05T15:55:01.963Z,1.58
2022-10-05T15:57:48.731Z,2.53
2022-10-05T16:00:23.600Z,1.40
2022-10-05T16:03:12.281Z,1.63
2022-10-05T16:06:08.906Z,1.30
2022-10-05T16:08:55.924Z,1.63
2022-10-05T16:11:40.922Z,1.60
2022-10-05T16:14:10.425Z,1.88
2022-10-05T16:16:42.424Z,1.55
2022-10-05T16:19:12.665Z,2.10
2022-10-05T16:21:44.291Z,1.70
2022-10-05T16:24:35.678Z,1.40
2022-10-05T16:27:16.342Z,1.63
2022-10-05T16:30:11.863Z,1.75
2022-10-05T16:32:46.498Z,2.00
2022-10-05T16:35:25.331Z,1.88
2022-10-05T16:38:05.753Z,2.03
2022-10-05T16:41:01.073Z,2.15
2022-10-05T16:43:34.734Z,1.77
2022-10-05T16:46:22.166Z,2.17
2022-10-05T16:49:01.409Z,2.17
2022-10-05T16:51:28.143Z,2.38
2022-10-05T16:54:18.542Z,1.92
2022-10-05T16:56:52.127Z,1.30
2022-10-05T16:59:46.984Z,1.50
2022-10-05T17:02:35.442Z,1.90
2022-10-05T17:05:40.102Z,1.40
2022-10-05T17:08:27.908Z,1.50
2022-10-05T17:11:19.955Z,1.58
2022-10-05T17:14:08.265Z,1.77
2022-10-05T17:17:05.486Z,1.75
2022-10-05T17:20:01.250Z,1.50
2022-10-05T17:22:42.787Z,1.80
2022-10-05T17:25:27.856Z,2.15
2022-10-05T17:28:33.402Z,2.22
2022-10-05T17:31:15.223Z,2.10
2022-10-05T17:34:00.397Z,2.13
2022-10-05T17:36:49.234Z,1.73
2022-10-05T17:39:22.113Z,1.77
2022-10-05T17:41:49.401Z,2.13
2022-10-05T17:44:19.630Z,2.08
2022-10-05T17:47:01.097Z,2.00
2022-10-05T17:50:15.426Z,2.30
2022-10-05T17:53:03.062Z,1.83
2022-10-05T17:55:45.023Z,2.17
2022-10-05T17:58:24.133Z,1.70
2022-10-05T18:00:57.167Z,2.03
2022-10-05T18:04:11.587Z,3.17
2022-10-05T18:07:27.867Z,2.22
2022-10-05T18:09:59.257Z,2.35
2022-10-05T18:12:41.677Z,2.15
2022-10-05T18:15:09.472Z,2.67
2022-10-05T18:18:25.756Z,2.20
2022-10-05T18:21:14.141Z,2.60
2022-10-05T18:24:23.289Z,2.83
2022-10-05T18:27:05.289Z,3.30
2022-10-05T18:30:05.532Z,2.67
2022-10-05T18:32:38.321Z,2.38
2022-10-05T18:35:32.720Z,2.47
2022-10-05T18:38:19.621Z,4.32
2022-10-05T18:40:55.833Z,2.30
2022-10-05T18:43:34.836Z,2.85
2022-10-05T18:46:27.414Z,2.70
2022-10-05T18:49:08.127Z,2.30
2022-10-05T18:51:51.008Z,2.33
2022-10-05T18:54:57.541Z,2.80
2022-10-05T18:57:33.102Z,3.03
2022-10-05T19:00:08.038Z,2.28
2022-10-05T19:02:40.510Z,2.58
2022-10-05T19:05:49.113Z,3.03
2022-10-05T19:08:53.621Z,3.25
2022-10-05T19:11:36.605Z,2.65
2022-10-05T19:14:21.843Z,4.20
2022-10-05T19:17:01.588Z,4.43
2022-10-05T19:19:49.273Z,4.65
2022-10-05T19:22:26.584Z,3.72
2022-10-05T19:25:17.494Z,6.65
2022-10-05T19:28:14.248Z,4.47
2022-10-05T19:30:53.758Z,3.38
2022-10-05T19:33:37.876Z,4.22
2022-10-05T19:36:17.066Z,5.15
2022-10-05T19:39:06.649Z,3.70
2022-10-05T19:42:10.602Z,4.95
2022-10-05T19:44:57.592Z,7.18
2022-10-05T19:47:45.512Z,4.35
2022-10-05T19:50:27.882Z,2.85
2022-10-05T19:53:11.392Z,3.35
2022-10-05T19:55:41.920Z,3.60
2022-10-05T19:58:40.092Z,3.58
2022-10-05T20:01:11.508Z,4.47
2022-10-05T20:03:38.722Z,4.82
2022-10-05T20:06:08.171Z,3.00
2022-10-05T20:08:47.122Z,3.85
2022-10-05T20:11:17.516Z,3.63
2022-10-05T20:14:09.679Z,3.17
2022-10-05T20:16:55.382Z,4.30
2022-10-05T20:20:06.748Z,3.70
2022-10-05T20:22:36.118Z,4.05
2022-10-05T20:25:06.507Z,6.78
2022-10-05T20:27:42.245Z,4.50
2022-10-05T20:30:11.653Z,3.53
2022-10-05T20:32:38.676Z,3.42
2022-10-05T20:35:07.073Z,3.63
2022-10-05T20:37:34.217Z,3.95
2022-10-05T20:40:00.941Z,4.47
2022-10-05T20:42:27.653Z,6.55
2022-10-05T20:44:57.010Z,3.80
2022-10-05T20:47:24.797Z,3.75
2022-10-05T20:49:53.477Z,3.53
2022-10-05T20:52:21.277Z,5.07
2022-10-05T20:54:48.174Z,3.83
2022-10-05T20:57:14.981Z,4.20
2022-10-05T20:59:41.864Z,4.00
2022-10-05T21:02:08.741Z,4.68
2022-10-05T21:04:40.817Z,5.45
2022-10-05T21:07:08.532Z,4.25
2022-10-05T21:09:38.161Z,4.85
2022-10-05T21:12:05.000Z,5.88
2022-10-05T21:14:34.658Z,5.28
2022-10-05T21:17:05.197Z,4.20
2022-10-05T21:19:38.470Z,4.20
2022-10-05T21:22:10.013Z,5.35
2022-10-05T21:24:38.929Z,5.22
2022-10-05T21:27:06.269Z,3.63
2022-10-05T21:29:34.442Z,3.85
2022-10-05T21:32:01.389Z,3.65
2022-10-05T21:34:28.838Z,4.45
2022-10-05T21:36:55.678Z,4.63
2022-10-05T21:39:22.562Z,4.28
2022-10-05T21:41:49.875Z,4.75
2022-10-05T21:44:16.848Z,4.78
2022-10-05T21:46:43.920Z,5.50
2022-10-05T21:49:11.027Z,4.13
2022-10-05T21:51:38.787Z,4.35
2022-10-05T21:54:24.515Z,4.05
2022-10-05T21:56:54.844Z,4.35
2022-10-05T21:59:27.204Z,4.22
2022-10-05T22:01:54.105Z,4.28
2022-10-05T22:04:20.983Z,4.97
2022-10-05T22:06:49.224Z,4.30
2022-10-05T22:09:15.949Z,4.68
2022-10-05T22:11:42.693Z,5.20
2022-10-05T22:14:09.630Z,5.35
2022-10-05T22:16:38.952Z,5.07
2022-10-05T22:19:10.968Z,3.80
2022-10-05T22:21:41.675Z,4.65
2022-10-05T22:24:11.733Z,4.38
2022-10-05T22:29:05.904Z,4.18
2022-10-05T22:31:32.901Z,4.20
2022-10-05T22:33:59.643Z,3.72
2022-10-05T22:36:26.923Z,5.45
2022-10-05T22:38:53.753Z,4.65
2022-10-05T22:41:20.993Z,4.10
2022-10-05T22:43:50.403Z,4.90
2022-10-05T22:46:17.562Z,3.70
2022-10-05T22:48:44.366Z,4.28
2022-10-05T22:51:11.111Z,4.45
2022-10-05T22:53:38.287Z,5.75
2022-10-05T22:56:11.054Z,4.68
2022-10-05T22:58:38.302Z,6.22
2022-10-05T23:01:08.109Z,4.93
2022-10-05T23:03:35.503Z,6.22
2022-10-05T23:06:05.295Z,5.55
2022-10-05T23:08:33.380Z,6.05
2022-10-05T23:11:07.255Z,6.13
2022-10-05T23:13:34.416Z,6.72
2022-10-05T23:16:14.256Z,6.13
2022-10-05T23:18:42.562Z,5.47
2022-10-05T23:21:10.537Z,6.57
2022-10-05T23:23:43.633Z,8.77
2022-10-05T23:26:12.149Z,6.03
2022-10-05T23:28:40.617Z,7.25
2022-10-05T23:31:08.975Z,8.32
2022-10-05T23:33:35.857Z,8.02
2022-10-05T23:36:06.348Z,6.75
2022-10-05T23:38:34.475Z,6.28
2022-10-05T23:41:02.631Z,4.53
2022-10-05T23:43:29.974Z,5.95
2022-10-05T23:45:56.932Z,4.40
2022-10-05T23:48:23.673Z,6.00
2022-10-05T23:50:50.610Z,6.40
2022-10-05T23:53:18.011Z,5.50
2022-10-05T23:55:45.236Z,6.10
2022-10-05T23:58:12.004Z,6.45
